Main page
METAR-TAF:

METAR-TAF

Airports :

Isfahan International Airport

Esfahān, Iran

latitude: 32-28N, longitude: 051-43E, elevation: 1590 m

Current weather observation

The report was made 35 minutes ago, at 19:30 UTC
Wind 4 kt from the South
Temperature 10°C
Humidity 34%
Pressure 1025 hPa
Visibility 10 km or more
no clouds below 1500 m and no cumulonimbus

METAR: OIFM 281930Z 17004KT CAVOK 10/M05 Q1025 A3028

Time: 23:35 (20:05 UTC)

Forecast

The report was made 2 hours and 35 minutes ago, at 17:30 UTC
Forecast valid from 28 at 18 UTC to 29 at 24 UTC
Wind 8 kt from the East/Southeast
Visibility: 8000 m
Temporary
from 29 at 18 UTC to 29 at 24 UTC
Wind 16 kt from the West/Southwest

TAF: OIFM 281730Z 2818/2924 12008KT 8000 NSC TEMPO 2918/2924 24016KT

Weather observations and forecasts of more than 4000 airports (METAR and TAF reports).

The available stations are represented by yellow and red dots on the map.

Hover mouse over dot to see the name of the station.

Then click to see weather observations and forecasts.

To change the map : click on the green buttons with a black cross to zoom in, on the green button with a dash to zoom out, or on the green arrows for adjacent maps.


METAR-TAF: